sensor_id;sensor_type;location;lat;lon;timestamp;temperature;humidity
31525;DHT22;18134;52.298;8.888;2023-08-06T04:18:03;13.30;99.90
31525;DHT22;18134;52.298;8.888;2023-08-06T04:20:28;13.30;99.90
31525;DHT22;18134;52.298;8.888;2023-08-06T04:22:56;14.00;99.90
31525;DHT22;18134;52.298;8.888;2023-08-06T04:25:24;13.60;99.90
31525;DHT22;18134;52.298;8.888;2023-08-06T04:27:50;13.30;99.90
31525;DHT22;18134;52.298;8.888;2023-08-06T04:30:15;13.30;99.90
31525;DHT22;18134;52.298;8.888;2023-08-06T04:32:41;13.30;99.90
31525;DHT22;18134;52.298;8.888;2023-08-06T04:37:32;13.30;99.90
31525;DHT22;18134;52.298;8.888;2023-08-06T04:54:34;13.30;99.90
31525;DHT22;18134;52.298;8.888;2023-08-06T05:01:51;13.40;99.90
31525;DHT22;18134;52.298;8.888;2023-08-06T06:36:55;17.30;99.90
31525;DHT22;18134;52.298;8.888;2023-08-06T06:39:21;17.30;99.90
31525;DHT22;18134;52.298;8.888;2023-08-06T06:41:49;17.20;99.90
31525;DHT22;18134;52.298;8.888;2023-08-06T06:44:14;17.30;99.90
31525;DHT22;18134;52.298;8.888;2023-08-06T06:46:40;17.10;99.90
31525;DHT22;18134;52.298;8.888;2023-08-06T06:49:06;16.20;99.90
31525;DHT22;18134;52.298;8.888;2023-08-06T06:51:31;17.10;99.90
31525;DHT22;18134;52.298;8.888;2023-08-06T06:56:23;17.00;99.90
31525;DHT22;18134;52.298;8.888;2023-08-06T06:58:48;16.90;99.90
31525;DHT22;18134;52.298;8.888;2023-08-06T07:03:42;17.20;99.90
31525;DHT22;18134;52.298;8.888;2023-08-06T07:08:34;17.30;99.90
31525;DHT22;18134;52.298;8.888;2023-08-06T07:11:02;17.30;99.90
31525;DHT22;18134;52.298;8.888;2023-08-06T07:13:28;17.20;99.90
31525;DHT22;18134;52.298;8.888;2023-08-06T07:15:54;17.20;99.90
31525;DHT22;18134;52.298;8.888;2023-08-06T07:18:20;17.50;99.90
31525;DHT22;18134;52.298;8.888;2023-08-06T07:20:54;18.00;99.90
31525;DHT22;18134;52.298;8.888;2023-08-06T07:23:20;17.30;99.90
31525;DHT22;18134;52.298;8.888;2023-08-06T07:25:46;17.80;99.90
31525;DHT22;18134;52.298;8.888;2023-08-06T07:28:12;17.60;99.90
31525;DHT22;18134;52.298;8.888;2023-08-06T07:30:40;17.80;99.90
31525;DHT22;18134;52.298;8.888;2023-08-06T07:33:06;17.90;99.90
31525;DHT22;18134;52.298;8.888;2023-08-06T07:35:32;18.00;99.90
31525;DHT22;18134;52.298;8.888;2023-08-06T07:37:57;18.00;99.90
31525;DHT22;18134;52.298;8.888;2023-08-06T07:40:25;18.10;99.90
31525;DHT22;18134;52.298;8.888;2023-08-06T07:42:51;18.20;99.90
31525;DHT22;18134;52.298;8.888;2023-08-06T07:45:19;18.30;99.90
31525;DHT22;18134;52.298;8.888;2023-08-06T07:47:46;18.50;99.90
31525;DHT22;18134;52.298;8.888;2023-08-06T07:50:12;18.70;99.90
31525;DHT22;18134;52.298;8.888;2023-08-06T07:52:38;19.20;99.90
31525;DHT22;18134;52.298;8.888;2023-08-06T07:55:03;18.90;99.90
31525;DHT22;18134;52.298;8.888;2023-08-06T07:57:30;19.00;99.90
31525;DHT22;18134;52.298;8.888;2023-08-06T07:59:56;19.10;99.90
31525;DHT22;18134;52.298;8.888;2023-08-06T08:02:21;19.10;99.90
31525;DHT22;18134;52.298;8.888;2023-08-06T08:04:47;19.30;99.90
31525;DHT22;18134;52.298;8.888;2023-08-06T08:07:15;19.30;99.90
31525;DHT22;18134;52.298;8.888;2023-08-06T08:09:40;19.40;99.90
31525;DHT22;18134;52.298;8.888;2023-08-06T08:12:06;19.50;99.90
31525;DHT22;18134;52.298;8.888;2023-08-06T08:14:32;19.70;99.90
31525;DHT22;18134;52.298;8.888;2023-08-06T08:17:01;19.70;99.90
31525;DHT22;18134;52.298;8.888;2023-08-06T08:19:27;19.90;99.90
31525;DHT22;18134;52.298;8.888;2023-08-06T08:21:53;20.20;99.90
31525;DHT22;18134;52.298;8.888;2023-08-06T08:24:19;20.40;99.90
31525;DHT22;18134;52.298;8.888;2023-08-06T08:26:52;20.60;99.90
31525;DHT22;18134;52.298;8.888;2023-08-06T08:29:20;20.80;99.90
31525;DHT22;18134;52.298;8.888;2023-08-06T08:31:48;21.00;99.90
31525;DHT22;18134;52.298;8.888;2023-08-06T08:34:17;21.00;99.90
31525;DHT22;18134;52.298;8.888;2023-08-06T08:36:42;21.10;99.90
31525;DHT22;18134;52.298;8.888;2023-08-06T08:39:12;20.90;99.90
31525;DHT22;18134;52.298;8.888;2023-08-06T08:41:38;20.40;99.90
31525;DHT22;18134;52.298;8.888;2023-08-06T08:44:04;20.30;99.90
31525;DHT22;18134;52.298;8.888;2023-08-06T08:46:33;20.40;99.90
31525;DHT22;18134;52.298;8.888;2023-08-06T08:49:01;20.60;99.90
31525;DHT22;18134;52.298;8.888;2023-08-06T08:51:27;20.70;99.90
31525;DHT22;18134;52.298;8.888;2023-08-06T08:53:53;20.90;99.90
31525;DHT22;18134;52.298;8.888;2023-08-06T08:56:23;20.90;99.90
31525;DHT22;18134;52.298;8.888;2023-08-06T08:58:51;21.10;99.90
31525;DHT22;18134;52.298;8.888;2023-08-06T09:01:21;20.60;99.90
31525;DHT22;18134;52.298;8.888;2023-08-06T09:03:47;20.80;99.90
31525;DHT22;18134;52.298;8.888;2023-08-06T09:06:13;21.40;99.90
31525;DHT22;18134;52.298;8.888;2023-08-06T09:08:43;21.20;99.90
31525;DHT22;18134;52.298;8.888;2023-08-06T09:11:09;21.10;99.90
31525;DHT22;18134;52.298;8.888;2023-08-06T09:13:37;21.40;99.90
31525;DHT22;18134;52.298;8.888;2023-08-06T09:16:02;21.10;99.90
31525;DHT22;18134;52.298;8.888;2023-08-06T09:18:31;20.60;99.90
31525;DHT22;18134;52.298;8.888;2023-08-06T09:20:57;20.70;99.90
31525;DHT22;18134;52.298;8.888;2023-08-06T09:23:29;20.80;99.90
31525;DHT22;18134;52.298;8.888;2023-08-06T09:25:56;20.90;99.90
31525;DHT22;18134;52.298;8.888;2023-08-06T09:28:22;21.00;99.90
31525;DHT22;18134;52.298;8.888;2023-08-06T09:30:49;21.10;99.90
31525;DHT22;18134;52.298;8.888;2023-08-06T09:33:18;21.70;99.90
31525;DHT22;18134;52.298;8.888;2023-08-06T09:35:46;21.90;99.90
31525;DHT22;18134;52.298;8.888;2023-08-06T09:38:14;21.40;99.90
31525;DHT22;18134;52.298;8.888;2023-08-06T09:40:40;21.00;99.90
31525;DHT22;18134;52.298;8.888;2023-08-06T09:43:08;20.90;99.90
31525;DHT22;18134;52.298;8.888;2023-08-06T09:45:35;21.00;99.90
31525;DHT22;18134;52.298;8.888;2023-08-06T09:48:04;21.40;99.90
31525;DHT22;18134;52.298;8.888;2023-08-06T09:50:30;21.20;99.90
31525;DHT22;18134;52.298;8.888;2023-08-06T09:53:01;21.10;99.90
31525;DHT22;18134;52.298;8.888;2023-08-06T09:55:27;21.10;99.90
31525;DHT22;18134;52.298;8.888;2023-08-06T09:57:53;21.60;99.90
31525;DHT22;18134;52.298;8.888;2023-08-06T10:00:19;22.10;99.90
31525;DHT22;18134;52.298;8.888;2023-08-06T10:02:45;21.40;99.90
31525;DHT22;18134;52.298;8.888;2023-08-06T10:05:14;21.50;99.90
31525;DHT22;18134;52.298;8.888;2023-08-06T10:07:40;21.80;99.90
31525;DHT22;18134;52.298;8.888;2023-08-06T10:10:07;22.00;99.90
31525;DHT22;18134;52.298;8.888;2023-08-06T10:12:37;23.00;99.90
31525;DHT22;18134;52.298;8.888;2023-08-06T10:15:04;23.50;99.90
31525;DHT22;18134;52.298;8.888;2023-08-06T10:17:34;23.10;99.90
31525;DHT22;18134;52.298;8.888;2023-08-06T10:20:00;23.50;99.90
31525;DHT22;18134;52.298;8.888;2023-08-06T10:22:26;23.00;99.90
31525;DHT22;18134;52.298;8.888;2023-08-06T10:24:57;22.80;99.90
31525;DHT22;18134;52.298;8.888;2023-08-06T10:27:28;22.30;99.90
31525;DHT22;18134;52.298;8.888;2023-08-06T10:29:54;22.00;99.90
31525;DHT22;18134;52.298;8.888;2023-08-06T10:32:19;21.90;99.90
31525;DHT22;18134;52.298;8.888;2023-08-06T10:34:58;21.70;99.90
31525;DHT22;18134;52.298;8.888;2023-08-06T10:37:35;21.60;99.90
31525;DHT22;18134;52.298;8.888;2023-08-06T10:40:01;21.40;99.90
31525;DHT22;18134;52.298;8.888;2023-08-06T10:42:27;21.50;99.90
31525;DHT22;18134;52.298;8.888;2023-08-06T10:47:38;21.50;99.90
31525;DHT22;18134;52.298;8.888;2023-08-06T10:50:05;21.90;99.90
31525;DHT22;18134;52.298;8.888;2023-08-06T10:52:34;21.80;99.90
31525;DHT22;18134;52.298;8.888;2023-08-06T10:54:59;21.90;99.90
31525;DHT22;18134;52.298;8.888;2023-08-06T10:57:25;22.00;99.90
31525;DHT22;18134;52.298;8.888;2023-08-06T10:59:50;21.80;99.90
31525;DHT22;18134;52.298;8.888;2023-08-06T11:02:16;21.70;99.90
31525;DHT22;18134;52.298;8.888;2023-08-06T11:04:42;21.60;99.90
31525;DHT22;18134;52.298;8.888;2023-08-06T11:07:07;21.50;99.90
31525;DHT22;18134;52.298;8.888;2023-08-06T11:09:33;21.60;99.90
31525;DHT22;18134;52.298;8.888;2023-08-06T11:11:58;21.60;99.90
31525;DHT22;18134;52.298;8.888;2023-08-06T11:14:24;21.80;99.90
31525;DHT22;18134;52.298;8.888;2023-08-06T11:16:50;21.70;99.90
31525;DHT22;18134;52.298;8.888;2023-08-06T11:19:15;21.90;99.90
31525;DHT22;18134;52.298;8.888;2023-08-06T11:21:42;21.90;99.90
31525;DHT22;18134;52.298;8.888;2023-08-06T11:24:14;22.00;99.90
31525;DHT22;18134;52.298;8.888;2023-08-06T11:26:40;22.00;99.90
31525;DHT22;18134;52.298;8.888;2023-08-06T11:29:05;21.90;99.90
31525;DHT22;18134;52.298;8.888;2023-08-06T11:31:31;22.10;99.90
31525;DHT22;18134;52.298;8.888;2023-08-06T11:33:56;21.80;99.90
31525;DHT22;18134;52.298;8.888;2023-08-06T11:36:31;21.70;99.90
31525;DHT22;18134;52.298;8.888;2023-08-06T11:38:58;21.60;99.90
31525;DHT22;18134;52.298;8.888;2023-08-06T11:41:24;21.40;99.90
31525;DHT22;18134;52.298;8.888;2023-08-06T11:43:49;21.70;99.90
31525;DHT22;18134;52.298;8.888;2023-08-06T11:46:15;21.50;99.90
31525;DHT22;18134;52.298;8.888;2023-08-06T11:48:53;21.70;99.90
31525;DHT22;18134;52.298;8.888;2023-08-06T11:51:23;22.10;99.90
31525;DHT22;18134;52.298;8.888;2023-08-06T11:53:49;22.10;99.90
31525;DHT22;18134;52.298;8.888;2023-08-06T11:56:15;22.00;99.90
31525;DHT22;18134;52.298;8.888;2023-08-06T11:58:41;22.00;99.90
31525;DHT22;18134;52.298;8.888;2023-08-06T12:01:07;22.20;99.90
31525;DHT22;18134;52.298;8.888;2023-08-06T12:03:38;22.50;99.90
31525;DHT22;18134;52.298;8.888;2023-08-06T12:06:04;22.50;99.90
31525;DHT22;18134;52.298;8.888;2023-08-06T12:08:32;22.40;99.90
31525;DHT22;18134;52.298;8.888;2023-08-06T12:11:00;22.10;99.90
31525;DHT22;18134;52.298;8.888;2023-08-06T12:13:26;21.90;99.90
31525;DHT22;18134;52.298;8.888;2023-08-06T12:15:51;22.10;99.90
31525;DHT22;18134;52.298;8.888;2023-08-06T12:18:20;22.20;99.90
31525;DHT22;18134;52.298;8.888;2023-08-06T12:20:45;22.60;99.90
31525;DHT22;18134;52.298;8.888;2023-08-06T12:23:11;22.70;99.90
31525;DHT22;18134;52.298;8.888;2023-08-06T12:25:40;23.40;99.90
31525;DHT22;18134;52.298;8.888;2023-08-06T12:28:08;22.90;99.90
31525;DHT22;18134;52.298;8.888;2023-08-06T12:30:37;23.00;99.90
31525;DHT22;18134;52.298;8.888;2023-08-06T12:33:06;22.80;99.90
31525;DHT22;18134;52.298;8.888;2023-08-06T12:35:32;23.10;99.90
31525;DHT22;18134;52.298;8.888;2023-08-06T12:38:02;23.40;99.90
31525;DHT22;18134;52.298;8.888;2023-08-06T12:40:28;23.50;99.90
31525;DHT22;18134;52.298;8.888;2023-08-06T12:42:53;23.60;99.90
31525;DHT22;18134;52.298;8.888;2023-08-06T12:45:21;23.20;99.90
31525;DHT22;18134;52.298;8.888;2023-08-06T12:47:47;23.50;99.90
31525;DHT22;18134;52.298;8.888;2023-08-06T12:50:13;24.00;99.90
31525;DHT22;18134;52.298;8.888;2023-08-06T12:52:39;24.50;99.90
31525;DHT22;18134;52.298;8.888;2023-08-06T12:57:33;24.80;99.90
31525;DHT22;18134;52.298;8.888;2023-08-06T13:00:00;24.90;99.90
31525;DHT22;18134;52.298;8.888;2023-08-06T13:02:25;24.90;99.90
31525;DHT22;18134;52.298;8.888;2023-08-06T13:04:57;25.20;99.90
31525;DHT22;18134;52.298;8.888;2023-08-06T13:07:23;25.20;99.90
31525;DHT22;18134;52.298;8.888;2023-08-06T13:09:48;25.60;99.90
31525;DHT22;18134;52.298;8.888;2023-08-06T13:14:44;25.70;99.90
31525;DHT22;18134;52.298;8.888;2023-08-06T13:17:09;26.10;99.90
31525;DHT22;18134;52.298;8.888;2023-08-06T13:19:35;26.60;99.90
31525;DHT22;18134;52.298;8.888;2023-08-06T13:22:03;26.70;99.90
31525;DHT22;18134;52.298;8.888;2023-08-06T13:24:30;26.40;99.90
31525;DHT22;18134;52.298;8.888;2023-08-06T13:26:56;26.00;99.90
31525;DHT22;18134;52.298;8.888;2023-08-06T13:31:47;25.90;99.90
31525;DHT22;18134;52.298;8.888;2023-08-06T13:34:13;26.20;99.90
31525;DHT22;18134;52.298;8.888;2023-08-06T13:36:41;26.00;99.90
31525;DHT22;18134;52.298;8.888;2023-08-06T13:39:06;25.70;99.90
31525;DHT22;18134;52.298;8.888;2023-08-06T13:41:32;25.40;99.90
31525;DHT22;18134;52.298;8.888;2023-08-06T13:43:58;25.60;99.90
31525;DHT22;18134;52.298;8.888;2023-08-06T13:46:23;25.20;99.90
31525;DHT22;18134;52.298;8.888;2023-08-06T13:48:49;25.50;99.90
31525;DHT22;18134;52.298;8.888;2023-08-06T13:51:20;24.80;99.90
31525;DHT22;18134;52.298;8.888;2023-08-06T13:53:48;24.70;99.90
31525;DHT22;18134;52.298;8.888;2023-08-06T13:56:13;24.40;99.90
31525;DHT22;18134;52.298;8.888;2023-08-06T13:58:43;24.00;99.90
31525;DHT22;18134;52.298;8.888;2023-08-06T14:01:12;23.60;99.90
31525;DHT22;18134;52.298;8.888;2023-08-06T14:06:04;22.50;99.90
31525;DHT22;18134;52.298;8.888;2023-08-06T14:08:29;22.20;99.90
31525;DHT22;18134;52.298;8.888;2023-08-06T14:10:55;21.90;99.90
31525;DHT22;18134;52.298;8.888;2023-08-06T14:13:23;21.50;99.90
31525;DHT22;18134;52.298;8.888;2023-08-06T14:15:48;21.50;99.90
31525;DHT22;18134;52.298;8.888;2023-08-06T14:23:06;21.50;99.90
31525;DHT22;18134;52.298;8.888;2023-08-06T14:25:31;21.70;99.90
31525;DHT22;18134;52.298;8.888;2023-08-06T14:27:57;21.60;99.90
31525;DHT22;18134;52.298;8.888;2023-08-06T14:52:21;21.90;99.90
31525;DHT22;18134;52.298;8.888;2023-08-06T15:06:57;20.50;99.90
31525;DHT22;18134;52.298;8.888;2023-08-06T15:09:22;20.00;99.90
31525;DHT22;18134;52.298;8.888;2023-08-06T15:11:48;19.70;99.90
31525;DHT22;18134;52.298;8.888;2023-08-06T15:14:14;19.60;99.90
31525;DHT22;18134;52.298;8.888;2023-08-06T15:16:40;19.50;99.90
31525;DHT22;18134;52.298;8.888;2023-08-06T15:19:06;19.10;99.90
31525;DHT22;18134;52.298;8.888;2023-08-06T15:21:31;18.80;99.90
31525;DHT22;18134;52.298;8.888;2023-08-06T15:23:57;18.60;99.90
31525;DHT22;18134;52.298;8.888;2023-08-06T15:26:22;18.60;99.90
31525;DHT22;18134;52.298;8.888;2023-08-06T15:28:48;18.60;99.90
31525;DHT22;18134;52.298;8.888;2023-08-06T15:31:13;18.80;99.90
31525;DHT22;18134;52.298;8.888;2023-08-06T15:33:41;18.80;99.90
31525;DHT22;18134;52.298;8.888;2023-08-06T15:36:07;18.70;99.90
31525;DHT22;18134;52.298;8.888;2023-08-06T15:38:32;18.80;99.90
31525;DHT22;18134;52.298;8.888;2023-08-06T15:41:03;18.60;99.90
31525;DHT22;18134;52.298;8.888;2023-08-06T15:43:28;18.50;99.90
31525;DHT22;18134;52.298;8.888;2023-08-06T15:45:54;18.50;99.90
31525;DHT22;18134;52.298;8.888;2023-08-06T15:48:19;18.20;99.90
31525;DHT22;18134;52.298;8.888;2023-08-06T15:50:45;17.90;99.90
31525;DHT22;18134;52.298;8.888;2023-08-06T15:53:13;17.50;99.90
31525;DHT22;18134;52.298;8.888;2023-08-06T15:55:38;17.30;99.90
31525;DHT22;18134;52.298;8.888;2023-08-06T15:58:04;17.50;99.90
31525;DHT22;18134;52.298;8.888;2023-08-06T16:00:30;17.50;99.90
31525;DHT22;18134;52.298;8.888;2023-08-06T16:02:56;17.30;99.90
31525;DHT22;18134;52.298;8.888;2023-08-06T16:05:22;17.10;99.90
31525;DHT22;18134;52.298;8.888;2023-08-06T16:07:51;17.20;99.90
31525;DHT22;18134;52.298;8.888;2023-08-06T16:10:19;17.20;99.90
31525;DHT22;18134;52.298;8.888;2023-08-06T16:12:44;17.40;99.90
31525;DHT22;18134;52.298;8.888;2023-08-06T16:15:10;17.10;99.90
31525;DHT22;18134;52.298;8.888;2023-08-06T16:17:35;17.20;99.90
31525;DHT22;18134;52.298;8.888;2023-08-06T16:20:01;17.30;99.90
31525;DHT22;18134;52.298;8.888;2023-08-06T16:22:26;17.30;99.90
31525;DHT22;18134;52.298;8.888;2023-08-06T16:24:52;17.50;99.90
31525;DHT22;18134;52.298;8.888;2023-08-06T16:27:17;17.30;99.90
31525;DHT22;18134;52.298;8.888;2023-08-06T16:32:13;17.10;99.90
31525;DHT22;18134;52.298;8.888;2023-08-06T16:34:39;17.10;99.90
31525;DHT22;18134;52.298;8.888;2023-08-06T16:37:05;17.20;99.90
31525;DHT22;18134;52.298;8.888;2023-08-06T17:30:42;16.90;99.90
31525;DHT22;18134;52.298;8.888;2023-08-06T17:33:08;17.00;99.90
31525;DHT22;18134;52.298;8.888;2023-08-06T17:35:34;16.80;99.90
31525;DHT22;18134;52.298;8.888;2023-08-06T17:38:00;16.70;99.90
31525;DHT22;18134;52.298;8.888;2023-08-06T17:40:26;16.40;99.90
31525;DHT22;18134;52.298;8.888;2023-08-06T17:42:52;16.30;99.90
31525;DHT22;18134;52.298;8.888;2023-08-06T17:45:18;16.40;99.90
31525;DHT22;18134;52.298;8.888;2023-08-06T17:47:44;16.30;99.90
31525;DHT22;18134;52.298;8.888;2023-08-06T17:52:36;16.10;99.90
31525;DHT22;18134;52.298;8.888;2023-08-06T17:55:02;16.10;99.90
31525;DHT22;18134;52.298;8.888;2023-08-06T17:57:29;16.00;99.90
31525;DHT22;18134;52.298;8.888;2023-08-06T17:59:55;16.10;99.90
31525;DHT22;18134;52.298;8.888;2023-08-06T18:02:20;15.80;99.90
31525;DHT22;18134;52.298;8.888;2023-08-06T18:04:46;15.80;99.90
31525;DHT22;18134;52.298;8.888;2023-08-06T18:07:15;15.70;99.90
31525;DHT22;18134;52.298;8.888;2023-08-06T18:09:40;15.70;99.90
31525;DHT22;18134;52.298;8.888;2023-08-06T18:12:06;15.70;99.90
31525;DHT22;18134;52.298;8.888;2023-08-06T18:14:37;15.70;99.90
31525;DHT22;18134;52.298;8.888;2023-08-06T18:17:03;15.60;99.90
31525;DHT22;18134;52.298;8.888;2023-08-06T18:19:29;15.80;99.90
31525;DHT22;18134;52.298;8.888;2023-08-06T18:21:55;15.70;99.90
31525;DHT22;18134;52.298;8.888;2023-08-06T18:24:21;15.80;99.90
31525;DHT22;18134;52.298;8.888;2023-08-06T18:26:46;15.70;99.90
31525;DHT22;18134;52.298;8.888;2023-08-06T18:29:12;15.70;99.90
31525;DHT22;18134;52.298;8.888;2023-08-06T18:31:37;15.50;99.90
31525;DHT22;18134;52.298;8.888;2023-08-06T18:34:05;15.50;99.90
31525;DHT22;18134;52.298;8.888;2023-08-06T18:36:32;15.40;99.90
31525;DHT22;18134;52.298;8.888;2023-08-06T18:38:58;15.70;99.90
31525;DHT22;18134;52.298;8.888;2023-08-06T18:41:26;15.30;99.90
31525;DHT22;18134;52.298;8.888;2023-08-06T18:43:51;15.30;99.90
31525;DHT22;18134;52.298;8.888;2023-08-06T18:46:20;15.30;99.90
31525;DHT22;18134;52.298;8.888;2023-08-06T18:48:45;15.30;99.90
31525;DHT22;18134;52.298;8.888;2023-08-06T18:51:11;15.20;99.90
31525;DHT22;18134;52.298;8.888;2023-08-06T18:53:37;15.20;99.90
31525;DHT22;18134;52.298;8.888;2023-08-06T18:56:03;15.10;99.90
31525;DHT22;18134;52.298;8.888;2023-08-06T18:58:29;15.10;99.90
31525;DHT22;18134;52.298;8.888;2023-08-06T19:01:00;15.00;99.90
31525;DHT22;18134;52.298;8.888;2023-08-06T19:03:25;15.10;99.90
31525;DHT22;18134;52.298;8.888;2023-08-06T19:05:57;15.20;99.90
31525;DHT22;18134;52.298;8.888;2023-08-06T19:08:22;15.20;99.90
31525;DHT22;18134;52.298;8.888;2023-08-06T19:10:48;15.20;99.90
31525;DHT22;18134;52.298;8.888;2023-08-06T19:13:14;15.20;99.90
31525;DHT22;18134;52.298;8.888;2023-08-06T19:15:44;15.20;99.90
31525;DHT22;18134;52.298;8.888;2023-08-06T19:18:10;15.30;99.90
31525;DHT22;18134;52.298;8.888;2023-08-06T19:20:44;15.20;99.90
31525;DHT22;18134;52.298;8.888;2023-08-06T19:23:10;15.40;99.90
31525;DHT22;18134;52.298;8.888;2023-08-06T19:25:41;15.30;99.90
31525;DHT22;18134;52.298;8.888;2023-08-06T19:28:08;15.30;99.90
31525;DHT22;18134;52.298;8.888;2023-08-06T19:30:38;15.20;99.90
31525;DHT22;18134;52.298;8.888;2023-08-06T19:33:07;15.30;99.90
31525;DHT22;18134;52.298;8.888;2023-08-06T19:35:44;14.80;99.90
31525;DHT22;18134;52.298;8.888;2023-08-06T19:38:12;15.20;99.90
31525;DHT22;18134;52.298;8.888;2023-08-06T19:40:37;15.20;99.90
31525;DHT22;18134;52.298;8.888;2023-08-06T19:43:03;15.20;99.90
31525;DHT22;18134;52.298;8.888;2023-08-06T19:45:28;15.20;99.90
31525;DHT22;18134;52.298;8.888;2023-08-06T19:47:54;15.40;99.90
31525;DHT22;18134;52.298;8.888;2023-08-06T19:50:19;15.30;99.90
31525;DHT22;18134;52.298;8.888;2023-08-06T19:52:45;15.40;99.90
31525;DHT22;18134;52.298;8.888;2023-08-06T19:55:11;15.40;99.90
31525;DHT22;18134;52.298;8.888;2023-08-06T19:57:36;15.40;99.90
31525;DHT22;18134;52.298;8.888;2023-08-06T20:00:02;15.70;99.90
31525;DHT22;18134;52.298;8.888;2023-08-06T20:02:29;15.50;99.90
31525;DHT22;18134;52.298;8.888;2023-08-06T20:04:57;15.50;99.90
31525;DHT22;18134;52.298;8.888;2023-08-06T20:07:23;15.60;99.90
31525;DHT22;18134;52.298;8.888;2023-08-06T20:09:48;15.60;99.90
31525;DHT22;18134;52.298;8.888;2023-08-06T20:12:14;15.60;99.90
31525;DHT22;18134;52.298;8.888;2023-08-06T20:14:40;15.70;99.90
31525;DHT22;18134;52.298;8.888;2023-08-06T20:17:05;15.60;99.90
31525;DHT22;18134;52.298;8.888;2023-08-06T20:19:31;15.60;99.90
31525;DHT22;18134;52.298;8.888;2023-08-06T20:21:57;15.60;99.90
31525;DHT22;18134;52.298;8.888;2023-08-06T20:24:23;15.70;99.90
31525;DHT22;18134;52.298;8.888;2023-08-06T20:26:48;15.70;99.90
31525;DHT22;18134;52.298;8.888;2023-08-06T20:29:16;15.70;99.90
31525;DHT22;18134;52.298;8.888;2023-08-06T20:31:44;15.60;99.90
31525;DHT22;18134;52.298;8.888;2023-08-06T20:34:10;15.70;99.90
31525;DHT22;18134;52.298;8.888;2023-08-06T20:36:38;15.60;99.90
31525;DHT22;18134;52.298;8.888;2023-08-06T20:39:04;15.60;99.90
31525;DHT22;18134;52.298;8.888;2023-08-06T20:41:29;15.60;99.90
31525;DHT22;18134;52.298;8.888;2023-08-06T20:43:55;15.60;99.90
31525;DHT22;18134;52.298;8.888;2023-08-06T20:46:20;15.60;99.90
31525;DHT22;18134;52.298;8.888;2023-08-06T20:48:46;15.70;99.90
31525;DHT22;18134;52.298;8.888;2023-08-06T20:51:11;15.70;99.90
31525;DHT22;18134;52.298;8.888;2023-08-06T20:53:37;15.60;99.90
31525;DHT22;18134;52.298;8.888;2023-08-06T20:56:05;15.70;99.90
31525;DHT22;18134;52.298;8.888;2023-08-06T20:58:31;15.50;99.90
31525;DHT22;18134;52.298;8.888;2023-08-06T21:00:58;15.50;99.90
31525;DHT22;18134;52.298;8.888;2023-08-06T21:03:24;15.50;99.90
31525;DHT22;18134;52.298;8.888;2023-08-06T21:06:23;15.50;99.90
31525;DHT22;18134;52.298;8.888;2023-08-06T21:08:42;15.40;99.90
31525;DHT22;18134;52.298;8.888;2023-08-06T21:11:07;15.40;99.90
31525;DHT22;18134;52.298;8.888;2023-08-06T21:13:35;15.40;99.90
31525;DHT22;18134;52.298;8.888;2023-08-06T21:16:01;15.40;99.90
31525;DHT22;18134;52.298;8.888;2023-08-06T21:18:27;15.30;99.90
31525;DHT22;18134;52.298;8.888;2023-08-06T21:20:55;15.30;99.90
31525;DHT22;18134;52.298;8.888;2023-08-06T21:23:21;15.20;99.90
31525;DHT22;18134;52.298;8.888;2023-08-06T21:25:48;15.10;99.90
31525;DHT22;18134;52.298;8.888;2023-08-06T21:28:14;15.10;99.90
31525;DHT22;18134;52.298;8.888;2023-08-06T21:30:39;15.10;99.90
31525;DHT22;18134;52.298;8.888;2023-08-06T21:33:07;15.00;99.90
31525;DHT22;18134;52.298;8.888;2023-08-06T21:35:32;15.00;99.90
31525;DHT22;18134;52.298;8.888;2023-08-06T21:37:58;15.00;99.90
31525;DHT22;18134;52.298;8.888;2023-08-06T21:40:26;15.10;99.90
31525;DHT22;18134;52.298;8.888;2023-08-06T21:45:17;15.00;99.90
31525;DHT22;18134;52.298;8.888;2023-08-06T21:47:44;15.00;99.90
31525;DHT22;18134;52.298;8.888;2023-08-06T21:50:10;15.00;99.90
31525;DHT22;18134;52.298;8.888;2023-08-06T21:52:36;15.00;99.90
31525;DHT22;18134;52.298;8.888;2023-08-06T21:55:04;15.20;99.90
31525;DHT22;18134;52.298;8.888;2023-08-06T21:57:29;15.00;99.90
31525;DHT22;18134;52.298;8.888;2023-08-06T21:59:55;15.10;99.90
31525;DHT22;18134;52.298;8.888;2023-08-06T22:02:25;15.10;99.90
31525;DHT22;18134;52.298;8.888;2023-08-06T22:04:50;15.20;99.90
31525;DHT22;18134;52.298;8.888;2023-08-06T22:07:16;15.00;99.90
31525;DHT22;18134;52.298;8.888;2023-08-06T22:09:42;15.00;99.90
31525;DHT22;18134;52.298;8.888;2023-08-06T22:12:07;15.20;99.90
31525;DHT22;18134;52.298;8.888;2023-08-06T22:14:33;15.10;99.90
31525;DHT22;18134;52.298;8.888;2023-08-06T22:16:58;15.10;99.90
31525;DHT22;18134;52.298;8.888;2023-08-06T22:19:24;15.50;99.90
31525;DHT22;18134;52.298;8.888;2023-08-06T22:21:49;14.70;99.90
31525;DHT22;18134;52.298;8.888;2023-08-06T22:24:15;15.10;99.90
31525;DHT22;18134;52.298;8.888;2023-08-06T22:26:40;15.10;99.90
31525;DHT22;18134;52.298;8.888;2023-08-06T23:22:38;14.80;99.90
31525;DHT22;18134;52.298;8.888;2023-08-06T23:25:04;14.80;99.90
31525;DHT22;18134;52.298;8.888;2023-08-06T23:27:30;14.70;99.90
31525;DHT22;18134;52.298;8.888;2023-08-06T23:29:55;14.60;99.90
31525;DHT22;18134;52.298;8.888;2023-08-06T23:32:21;14.70;99.90
31525;DHT22;18134;52.298;8.888;2023-08-06T23:34:49;14.80;99.90
31525;DHT22;18134;52.298;8.888;2023-08-06T23:37:17;14.60;99.90
31525;DHT22;18134;52.298;8.888;2023-08-06T23:39:44;14.60;99.90
31525;DHT22;18134;52.298;8.888;2023-08-06T23:42:09;14.60;99.90
31525;DHT22;18134;52.298;8.888;2023-08-06T23:44:35;14.50;99.90
31525;DHT22;18134;52.298;8.888;2023-08-06T23:47:00;14.50;99.90
31525;DHT22;18134;52.298;8.888;2023-08-06T23:49:26;14.50;99.90
31525;DHT22;18134;52.298;8.888;2023-08-06T23:51:51;14.50;99.90
31525;DHT22;18134;52.298;8.888;2023-08-06T23:54:17;14.50;99.90
31525;DHT22;18134;52.298;8.888;2023-08-06T23:56:42;14.50;99.90
31525;DHT22;18134;52.298;8.888;2023-08-06T23:59:08;14.40;99.90
